Time;durP1;ratioP1;P1;durP2;ratioP2;P2;SDS_P1;SDS_P2;PMS_P1;PMS_P2;Temp;Humidity;BMP_temperature;BMP_pressure;BME280_temperature;BME280_humidity;BME280_pressure;Samples;Min_cycle;Max_cycle;Signal;HPM_P1;HPM_P2
2022/09/22 00:00:57;;;;;;;2.45;0.80;;;6.80;99.90;;;;;;20810715;28;20551;-44
2022/09/22 00:11:03;;;;;;;2.17;0.98;;;6.90;99.90;;;;;;20809771;28;20041;-45
2022/09/22 00:21:08;;;;;;;2.10;1.10;;;6.90;99.90;;;;;;20809572;28;20091;-45
2022/09/22 00:31:13;;;;;;;1.75;1.10;;;6.90;99.90;;;;;;20824795;28;20037;-44
2022/09/22 00:41:26;;;;;;;1.58;0.80;;;6.90;99.90;;;;;;20810040;28;20034;-44
2022/09/22 00:51:34;;;;;;;2.65;1.02;;;6.80;99.90;;;;;;20775970;28;20050;-45
2022/09/22 01:01:39;;;;;;;4.35;0.82;;;6.90;99.90;;;;;;20806198;28;20041;-46
2022/09/22 01:11:42;;;;;;;2.50;0.85;;;6.90;99.90;;;;;;20822109;28;20117;-46
2022/09/22 01:21:59;;;;;;;2.50;0.90;;;6.90;99.90;;;;;;20773290;28;20547;-45
2022/09/22 01:32:16;;;;;;;1.17;0.75;;;6.70;99.90;;;;;;20821451;28;20041;-46
2022/09/22 01:42:50;;;;;;;2.83;0.90;;;6.60;99.90;;;;;;20782045;28;20042;-45
2022/09/22 01:52:56;;;;;;;3.85;0.88;;;6.40;99.90;;;;;;20785284;28;20111;-44
2022/09/22 02:03:19;;;;;;;1.88;1.17;;;6.10;99.90;;;;;;20818972;28;20060;-45
2022/09/22 02:13:21;;;;;;;2.67;1.10;;;6.00;99.90;;;;;;20819291;28;20568;-46
2022/09/22 02:23:24;;;;;;;2.42;1.27;;;5.80;99.90;;;;;;20802180;28;20110;-44
2022/09/22 02:33:29;;;;;;;2.53;0.80;;;5.90;99.90;;;;;;20834061;28;20037;-44
2022/09/22 02:44:08;;;;;;;1.92;1.23;;;5.90;99.90;;;;;;20801174;28;20380;-46
2022/09/22 02:54:13;;;;;;;3.47;1.30;;;5.80;99.90;;;;;;20459680;29;20055;-44
2022/09/22 03:04:15;;;;;;;2.35;1.23;;;5.70;99.90;;;;;;20484155;28;20476;-44
2022/09/22 03:14:18;;;;;;;3.63;2.00;;;5.40;99.90;;;;;;20483369;29;20512;-47
2022/09/22 03:24:21;;;;;;;5.85;1.80;;;5.20;99.90;;;;;;20595652;28;20045;-46
2022/09/22 03:34:23;;;;;;;4.10;2.20;;;4.80;99.90;;;;;;20830318;28;20115;-44
2022/09/22 03:44:26;;;;;;;5.40;2.97;;;4.40;99.90;;;;;;20789073;28;20038;-52
2022/09/22 03:54:29;;;;;;;5.35;3.20;;;4.20;99.90;;;;;;20804092;28;20049;-44
2022/09/22 04:04:31;;;;;;;6.28;3.25;;;4.10;99.90;;;;;;20826729;28;20037;-46
2022/09/22 04:14:34;;;;;;;4.35;3.00;;;4.10;99.90;;;;;;20826145;28;20107;-58
2022/09/22 04:24:38;;;;;;;5.95;2.50;;;4.10;99.90;;;;;;20824620;28;20564;-44
2022/09/22 04:34:40;;;;;;;3.88;2.80;;;4.30;99.90;;;;;;20824796;28;20343;-45
2022/09/22 04:44:42;;;;;;;4.80;2.60;;;4.40;99.90;;;;;;20765653;28;20034;-45
2022/09/22 04:54:45;;;;;;;5.03;2.10;;;4.60;99.90;;;;;;20785409;28;20280;-46
2022/09/22 05:04:47;;;;;;;3.97;1.70;;;4.90;99.90;;;;;;20822652;28;20115;-44
2022/09/22 05:14:49;;;;;;;2.00;1.30;;;5.30;99.90;;;;;;20805589;28;20053;-44
2022/09/22 05:24:53;;;;;;;2.85;1.33;;;5.60;99.90;;;;;;20822575;28;20053;-46
2022/09/22 05:34:56;;;;;;;1.50;1.15;;;5.90;99.90;;;;;;20803905;28;20045;-44
2022/09/22 05:44:58;;;;;;;1.80;1.10;;;6.10;99.90;;;;;;20776828;28;20038;-45
2022/09/22 05:55:01;;;;;;;1.92;1.10;;;6.30;99.90;;;;;;20784253;28;20453;-46
2022/09/22 06:05:03;;;;;;;1.58;0.80;;;6.60;99.90;;;;;;20819238;28;20083;-44
2022/09/22 06:15:06;;;;;;;0.60;0.40;;;7.10;99.90;;;;;;20819820;28;20513;-44
2022/09/22 06:25:10;;;;;;;0.57;0.30;;;7.50;99.90;;;;;;20786589;28;20037;-46
2022/09/22 06:35:14;;;;;;;0.30;0.20;;;7.80;99.90;;;;;;20818781;28;20079;-45
2022/09/22 06:45:17;;;;;;;0.17;0.10;;;8.30;99.90;;;;;;20780295;28;20561;-46
2022/09/22 06:55:19;;;;;;;0.20;0.20;;;9.00;99.90;;;;;;20799381;28;20077;-45
2022/09/22 07:05:22;;;;;;;0.47;0.20;;;9.50;99.90;;;;;;20833131;28;20053;-45
2022/09/22 07:15:29;;;;;;;2.05;0.25;;;9.70;99.90;;;;;;20660032;28;20038;-45
2022/09/22 07:25:34;;;;;;;0.22;0.20;;;10.00;99.90;;;;;;20658775;28;20221;-45
2022/09/22 07:35:37;;;;;;;2.47;0.28;;;10.30;99.90;;;;;;20658140;28;20047;-45
2022/09/22 07:45:40;;;;;;;0.82;0.30;;;10.50;99.90;;;;;;20657488;28;20050;-47
2022/09/22 07:55:42;;;;;;;0.50;0.20;;;11.00;99.90;;;;;;20761756;28;20041;-45
2022/09/22 08:05:45;;;;;;;0.50;0.20;;;11.70;99.90;;;;;;20827074;28;20029;-45
2022/09/22 08:15:53;;;;;;;0.47;0.30;;;12.00;99.90;;;;;;20826139;28;20474;-45
2022/09/22 08:26:07;;;;;;;0.80;0.50;;;12.50;99.10;;;;;;20825492;28;20033;-59
2022/09/22 08:36:09;;;;;;;1.33;0.40;;;13.00;99.90;;;;;;20824517;28;20068;-46
2022/09/22 08:46:13;;;;;;;2.92;0.50;;;13.80;99.20;;;;;;20737891;28;20038;-45
2022/09/22 08:56:29;;;;;;;0.95;0.40;;;15.00;96.60;;;;;;20797697;28;20084;-47
2022/09/22 09:06:53;;;;;;;0.60;0.43;;;15.20;95.70;;;;;;20823915;28;20053;-45
2022/09/22 09:16:59;;;;;;;0.60;0.45;;;15.00;97.40;;;;;;20805538;28;20037;-48
2022/09/22 09:27:11;;;;;;;1.17;0.60;;;14.50;97.90;;;;;;20804915;28;20033;-46
2022/09/22 09:37:16;;;;;;;1.20;0.60;;;13.80;98.10;;;;;;20820462;28;20041;-45
2022/09/22 09:47:43;;;;;;;1.42;0.70;;;13.50;98.00;;;;;;20757901;28;20104;-46
2022/09/22 09:58:06;;;;;;;1.40;0.90;;;13.60;99.00;;;;;;20722456;28;20116;-45
2022/09/22 10:08:22;;;;;;;0.82;0.50;;;14.00;97.90;;;;;;20722024;28;20560;-45
2022/09/22 10:18:25;;;;;;;2.50;0.80;;;14.70;97.30;;;;;;20736150;28;20060;-59
2022/09/22 10:28:27;;;;;;;0.82;0.70;;;16.60;93.90;;;;;;20818199;28;20072;-47
2022/09/22 10:38:49;;;;;;;1.23;0.70;;;15.80;92.60;;;;;;20833018;28;20034;-59
2022/09/22 10:49:20;;;;;;;1.50;0.85;;;15.30;95.40;;;;;;20704904;28;20453;-47
2022/09/22 10:59:47;;;;;;;3.00;1.08;;;14.60;95.50;;;;;;20750846;28;20042;-45
2022/09/22 11:20:31;;;;;;;1.13;1.00;;;14.10;96.70;;;;;;20814152;28;20103;-44
2022/09/22 11:30:45;;;;;;;1.45;1.10;;;14.50;97.60;;;;;;20828730;28;20351;-59
2022/09/22 11:40:51;;;;;;;2.78;1.27;;;15.40;96.00;;;;;;20819021;28;20465;-45
2022/09/22 11:50:54;;;;;;;2.78;1.15;;;17.10;96.50;;;;;;20775969;28;20396;-47
2022/09/22 12:01:23;;;;;;;1.27;1.00;;;16.80;93.90;;;;;;20827171;28;20046;-47
2022/09/22 12:11:27;;;;;;;1.93;1.23;;;15.30;95.20;;;;;;20827103;28;20037;-59
2022/09/22 12:21:53;;;;;;;1.60;0.88;;;15.60;96.30;;;;;;20824931;28;20111;-59
2022/09/22 12:31:58;;;;;;;1.33;1.00;;;17.30;95.20;;;;;;20824682;28;20103;-45
2022/09/22 12:42:35;;;;;;;1.23;0.80;;;18.50;93.70;;;;;;20803398;28;20438;-45
2022/09/22 12:52:41;;;;;;;1.02;0.93;;;17.40;94.70;;;;;;20784543;28;20057;-59
2022/09/22 13:02:44;;;;;;;2.17;0.82;;;18.40;93.40;;;;;;20819212;28;20038;-46
2022/09/22 13:23:23;;;;;;;2.13;1.30;;;17.70;93.10;;;;;;20738989;28;20045;-48
2022/09/22 13:33:27;;;;;;;3.90;1.98;;;17.70;93.20;;;;;;20649107;28;20050;-59
2022/09/22 13:43:36;;;;;;;3.45;2.33;;;17.30;92.50;;;;;;20632728;28;20050;-59
2022/09/22 13:53:54;;;;;;;2.55;2.20;;;16.80;93.10;;;;;;20622696;28;20088;-59
2022/09/22 14:03:56;;;;;;;3.20;2.17;;;16.00;93.80;;;;;;20661312;28;20046;-59
2022/09/22 14:14:05;;;;;;;4.55;2.55;;;14.90;93.70;;;;;;20834835;28;20091;-47
2022/09/22 14:24:12;;;;;;;3.55;2.67;;;14.30;96.00;;;;;;20817492;28;20041;-46
2022/09/22 14:34:20;;;;;;;2.97;2.17;;;14.10;96.00;;;;;;20833551;28;20083;-46
2022/09/22 14:44:48;;;;;;;3.03;2.20;;;13.70;95.80;;;;;;20777310;28;20517;-46
2022/09/22 14:54:53;;;;;;;4.13;2.40;;;13.10;96.90;;;;;;20795167;28;20127;-45
2022/09/22 15:04:56;;;;;;;3.58;2.80;;;12.40;97.10;;;;;;20814712;28;20107;-47
2022/09/22 15:14:59;;;;;;;3.85;2.85;;;11.60;99.00;;;;;;20830470;28;20092;-59
2022/09/22 15:25:01;;;;;;;3.75;2.70;;;10.70;99.90;;;;;;20829486;28;20486;-58
2022/09/22 15:35:05;;;;;;;3.38;2.67;;;10.10;99.90;;;;;;20812364;28;20470;-48
2022/09/22 15:45:12;;;;;;;4.45;2.97;;;9.50;99.90;;;;;;20766058;28;20244;-47
2022/09/22 15:55:19;;;;;;;4.47;2.83;;;;;;;;;;20793676;28;20415;-45
2022/09/22 16:05:21;;;;;;;4.93;3.33;;;8.70;99.90;;;;;;20825845;28;20045;-46
2022/09/22 16:15:24;;;;;;;7.07;2.72;;;8.40;99.90;;;;;;20824904;28;20041;-44
2022/09/22 16:25:29;;;;;;;4.13;3.30;;;8.10;99.90;;;;;;20791784;28;20092;-58
2022/09/22 16:35:32;;;;;;;5.15;3.05;;;7.90;99.90;;;;;;20733319;28;20299;-59
2022/09/22 16:55:59;;;;;;;5.93;3.85;;;7.30;99.90;;;;;;20490883;28;20051;-60
2022/09/22 17:06:07;;;;;;;5.40;3.60;;;6.90;99.90;;;;;;20458453;28;20111;-47
2022/09/22 17:16:20;;;;;;;5.72;4.30;;;6.60;99.90;;;;;;20534013;28;20564;-45
2022/09/22 17:26:23;;;;;;;6.03;4.68;;;6.30;99.90;;;;;;20696684;28;20037;-46
2022/09/22 17:36:27;;;;;;;5.95;4.50;;;6.10;99.90;;;;;;20820482;28;20092;-47
2022/09/22 17:46:34;;;;;;;9.30;5.03;;;6.10;99.90;;;;;;20748702;28;20038;-57
2022/09/22 17:56:36;;;;;;;8.07;4.72;;;6.30;99.90;;;;;;20797266;28;20054;-44
2022/09/22 18:06:39;;;;;;;6.93;5.07;;;6.30;99.90;;;;;;20819409;28;20437;-59
2022/09/22 18:16:42;;;;;;;8.73;6.15;;;6.10;99.90;;;;;;20820679;28;20034;-45
2022/09/22 18:26:54;;;;;;;9.23;6.50;;;5.90;99.90;;;;;;20802376;28;20088;-44
2022/09/22 18:37:02;;;;;;;7.97;5.78;;;5.70;99.90;;;;;;20803374;28;20457;-58
2022/09/22 18:47:07;;;;;;;9.68;6.35;;;5.60;99.90;;;;;;20755602;28;20046;-58
2022/09/22 18:57:13;;;;;;;11.63;7.22;;;5.50;99.90;;;;;;20813903;28;20041;-58
2022/09/22 19:17:37;;;;;;;9.75;7.35;;;5.30;99.90;;;;;;20830149;28;20092;-45
2022/09/22 19:27:41;;;;;;;10.80;7.75;;;5.30;99.90;;;;;;20778166;28;20386;-59
2022/09/22 19:37:43;;;;;;;9.30;7.25;;;5.40;99.90;;;;;;20714446;28;20037;-61
2022/09/22 19:47:46;;;;;;;11.38;7.60;;;5.60;99.90;;;;;;20721602;28;20793;-62
2022/09/22 19:57:52;;;;;;;9.82;7.85;;;5.50;99.90;;;;;;20827356;28;20037;-63
2022/09/22 20:08:00;;;;;;;13.57;10.02;;;5.30;99.90;;;;;;20831959;28;20041;-58
2022/09/22 20:18:04;;;;;;;13.98;9.70;;;5.10;99.90;;;;;;20809583;28;20099;-61
2022/09/22 20:28:06;;;;;;;14.57;10.70;;;5.00;99.90;;;;;;20792163;28;20037;-63
2022/09/22 20:38:10;;;;;;;16.25;10.80;;;4.80;99.90;;;;;;20807371;28;20091;-65
2022/09/22 20:48:17;;;;;;;15.00;10.40;;;4.80;99.90;;;;;;20752598;28;20108;-62
2022/09/22 20:58:22;;;;;;;16.80;11.40;;;4.70;99.90;;;;;;20791209;28;20375;-66
2022/09/22 21:18:50;;;;;;;21.10;10.90;;;4.80;99.90;;;;;;21074879;23;20053;-55
2022/09/22 21:29:09;;;;;;;13.48;11.15;;;4.90;99.90;;;;;;21162736;23;20053;-61
2022/09/22 21:39:26;;;;;;;14.95;11.10;;;5.30;99.90;;;;;;20400842;23;20044;-59
2022/09/22 21:49:29;;;;;;;15.73;10.48;;;5.50;99.90;;;;;;20441926;23;20122;-61
2022/09/22 21:59:31;;;;;;;13.55;10.35;;;5.70;99.90;;;;;;20413233;29;20036;-51
2022/09/22 22:09:34;;;;;;;14.38;11.50;;;5.80;99.90;;;;;;20409931;29;20039;-59
2022/09/22 22:19:37;;;;;;;17.60;11.60;;;5.90;99.90;;;;;;20423413;29;20374;-61
2022/09/22 22:29:39;;;;;;;14.57;11.25;;;5.90;99.90;;;;;;20406411;29;20561;-51
2022/09/22 22:39:42;;;;;;;14.82;11.55;;;5.90;99.90;;;;;;20419898;29;20059;-49
2022/09/22 22:49:45;;;;;;;18.05;12.45;;;5.80;99.90;;;;;;20403459;29;20047;-48
2022/09/22 22:59:47;;;;;;;22.20;14.57;;;5.50;99.90;;;;;;20417679;29;20096;-49
2022/09/22 23:10:04;;;;;;;21.90;14.90;;;5.10;99.90;;;;;;20402082;29;20039;-61
2022/09/22 23:20:08;;;;;;;21.77;15.75;;;4.80;99.90;;;;;;20415312;29;20132;-48
2022/09/22 23:30:11;;;;;;;21.65;15.43;;;4.80;99.90;;;;;;20413437;29;20035;-43
2022/09/22 23:40:14;;;;;;;20.17;14.70;;;4.90;99.90;;;;;;20412742;29;20445;-60
2022/09/22 23:50:17;;;;;;;17.98;13.85;;;5.20;99.90;;;;;;20411453;29;20055;-48
